Time;durP1;ratioP1;P1;durP2;ratioP2;P2;SDS_P1;SDS_P2;PMS_P1;PMS_P2;Temp;Humidity;BMP_temperature;BMP_pressure;BME280_temperature;BME280_humidity;BME280_pressure;Samples;Min_cycle;Max_cycle;Signal;HPM_P1;HPM_P2
2022/07/25 00:00:29;;;;;;;6.10;2.83;;;18.60;63.60;;;;;;4140321;28;20060;-82
2022/07/25 00:02:59;;;;;;;;;;;18.60;64.00;;;;;;4151647;28;20048;-82
2022/07/25 00:05:30;;;;;;;10.80;2.80;;;18.60;64.90;;;;;;4137977;28;19910;-82
2022/07/25 00:08:37;;;;;;;;;;;;;;;;;;;;;
2022/07/25 00:11:11;;;;;;;4.68;2.97;;;18.50;65.00;;;;;;4148342;28;20018;-82
2022/07/25 00:13:52;;;;;;;;;;;;;;;;;;;;;
2022/07/25 00:16:30;;;;;;;8.10;3.40;;;18.50;64.80;;;;;;4144990;28;20041;-82
2022/07/25 00:22:07;;;;;;;4.45;3.35;;;18.50;65.80;;;;;;4053331;29;20123;-82
2022/07/25 00:24:51;;;;;;;6.72;3.45;;;18.50;65.10;;;;;;4036562;29;22514;-82
2022/07/25 00:27:31;;;;;;;4.82;3.13;;;18.40;65.30;;;;;;4055181;29;20123;-82
2022/07/25 00:29:53;;;;;;;6.38;3.72;;;18.40;66.00;;;;;;4044643;29;20044;-82
2022/07/25 00:32:24;;;;;;;;;;;;;;;;;;;;;
2022/07/25 00:34:57;;;;;;;6.35;3.05;;;18.50;65.70;;;;;;4137110;28;20030;-82
2022/07/25 00:37:28;;;;;;;7.00;3.20;;;18.50;65.80;;;;;;4167834;28;20068;-82
2022/07/25 00:40:17;;;;;;;;;;;;;;;;;;;;;
2022/07/25 00:42:55;;;;;;;10.63;3.80;;;18.50;66.30;;;;;;4197972;28;20100;-82
2022/07/25 00:46:12;;;;;;;;;;;;;;;;;;;;;
2022/07/25 00:53:22;;;;;;;6.50;3.35;;;18.60;66.50;;;;;;4126042;28;20045;-82
2022/07/25 00:56:04;;;;;;;8.40;4.40;;;18.60;66.50;;;;;;4183522;28;20028;-81
2022/07/25 00:58:55;;;;;;;7.03;4.18;;;18.60;66.30;;;;;;4110041;28;20705;-81
2022/07/25 01:02:26;;;;;;;7.90;4.43;;;18.70;66.50;;;;;;4150020;28;20081;-81
2022/07/25 01:05:52;;;;;;;7.63;5.22;;;18.70;66.50;;;;;;4121442;28;20389;-82
2022/07/25 01:12:43;;;;;;;;;;;;;;;;;;;;;
2022/07/25 01:31:17;;;;;;;7.18;5.10;;;18.90;66.10;;;;;;3501988;23;20324;-82
2022/07/25 01:34:40;;;;;;;8.68;5.32;;;18.90;66.20;;;;;;4079106;28;20632;-80
2022/07/25 01:37:28;;;;;;;;;;;;;;;;;;;;;
2022/07/25 02:04:08;;;;;;;9.23;4.28;;;19.30;64.70;;;;;;4065711;28;20502;-80
2022/07/25 02:06:56;;;;;;;;;;;;;;;;;;;;;
2022/07/25 02:17:13;;;;;;;;;;;;;;;;;;;;;
2022/07/25 02:20:11;;;;;;;8.07;5.10;;;19.40;64.00;;;;;;4039411;29;20128;-81
2022/07/25 02:23:04;;;;;;;7.10;4.65;;;19.50;63.90;;;;;;4042752;29;20462;-82
2022/07/25 02:37:02;;;;;;;6.55;4.30;;;19.60;63.40;;;;;;3848460;30;20970;-82
2022/07/25 02:51:51;;;;;;;10.23;5.30;;;19.70;62.60;;;;;;4072822;28;20062;-80
2022/07/25 03:04:37;;;;;;;;;;;;;;;;;;;;;
2022/07/25 03:07:46;;;;;;;8.38;5.75;;;19.80;62.10;;;;;;4123468;28;20120;-81
2022/07/25 03:10:35;;;;;;;8.15;5.32;;;19.70;61.90;;;;;;4111938;28;20433;-80
2022/07/25 03:36:41;;;;;;;;;;;;;;;;;;;;;
2022/07/25 03:40:22;;;;;;;8.77;5.32;;;19.80;61.50;;;;;;4051139;28;20061;-81
2022/07/25 03:56:39;;;;;;;6.00;4.72;;;19.90;61.30;;;;;;4041920;29;20043;-81
2022/07/25 04:06:47;;;;;;;;;;;;;;;;;;;;;
2022/07/25 04:19:57;;;;;;;;;;;;;;;;;;;;;
2022/07/25 04:22:27;;;;;;;8.82;4.65;;;20.00;60.90;;;;;;3985178;29;20633;-82
2022/07/25 04:24:30;;;;;;;6.38;4.50;;;20.00;60.90;;;;;;4119081;28;20034;-82
2022/07/25 04:26:31;;;;;;;6.13;4.50;;;20.00;60.90;;;;;;4108909;28;20031;-83
2022/07/25 04:31:57;;;;;;;10.63;4.53;;;20.00;60.70;;;;;;4059126;29;20040;-82
2022/07/25 04:34:48;;;;;;;;;;;;;;;;;;;;;
2022/07/25 04:40:54;;;;;;;;;;;;;;;;;;;;;
2022/07/25 04:43:01;;;;;;;7.93;4.80;;;20.20;60.60;;;;;;4058180;29;20108;-81
2022/07/25 04:45:03;;;;;;;5.75;4.35;;;20.20;60.50;;;;;;4059691;29;20040;-81
2022/07/25 04:47:04;;;;;;;6.63;4.80;;;20.20;60.40;;;;;;4064627;29;20083;-82
2022/07/25 04:49:05;;;;;;;6.70;4.32;;;20.20;60.40;;;;;;4122338;28;20543;-81
2022/07/25 04:51:06;;;;;;;6.78;4.47;;;20.20;60.30;;;;;;4108336;28;20027;-82
2022/07/25 04:53:07;;;;;;;8.57;4.35;;;20.30;60.30;;;;;;4102639;28;20162;-85
2022/07/25 04:55:08;;;;;;;9.32;4.55;;;20.20;60.10;;;;;;4108798;28;20026;-83
2022/07/25 04:57:10;;;;;;;8.43;5.25;;;20.30;60.20;;;;;;4125687;28;20084;-82
2022/07/25 04:59:10;;;;;;;7.75;4.85;;;20.20;60.00;;;;;;4128018;28;20029;-82
2022/07/25 05:01:11;;;;;;;8.27;4.03;;;20.30;59.90;;;;;;4124391;28;20161;-82
2022/07/25 05:03:12;;;;;;;7.57;4.60;;;20.30;59.80;;;;;;4124840;28;20901;-81
2022/07/25 05:05:13;;;;;;;7.93;4.22;;;20.40;59.80;;;;;;4119522;28;20094;-81
2022/07/25 05:07:14;;;;;;;7.85;4.10;;;20.40;59.70;;;;;;4133047;28;20033;-82
2022/07/25 05:09:14;;;;;;;7.28;4.32;;;20.40;59.70;;;;;;4113446;28;20121;-82
2022/07/25 05:11:15;;;;;;;5.90;4.10;;;20.50;59.70;;;;;;4116663;28;20030;-82
2022/07/25 05:13:16;;;;;;;6.10;4.07;;;20.50;59.60;;;;;;4096139;28;20031;-82
2022/07/25 05:15:19;;;;;;;10.25;4.28;;;20.50;59.60;;;;;;4118869;28;20554;-84
2022/07/25 05:17:20;;;;;;;8.65;4.22;;;20.60;59.60;;;;;;4120932;28;20048;-83
2022/07/25 05:19:21;;;;;;;6.95;4.18;;;20.60;59.40;;;;;;4118192;28;20023;-84
2022/07/25 05:21:22;;;;;;;10.02;4.57;;;20.70;59.60;;;;;;4121613;28;20038;-84
2022/07/25 05:23:23;;;;;;;13.18;4.22;;;20.80;59.40;;;;;;4124291;28;20116;-83
2022/07/25 05:25:24;;;;;;;9.52;3.53;;;20.90;59.10;;;;;;4120959;28;20034;-83
2022/07/25 05:27:25;;;;;;;6.88;4.18;;;20.90;58.80;;;;;;4107050;28;20027;-83
2022/07/25 05:29:26;;;;;;;5.50;3.67;;;21.00;59.20;;;;;;4120134;28;20522;-84
2022/07/25 05:31:26;;;;;;;5.80;3.88;;;21.10;58.40;;;;;;4115879;28;20062;-84
2022/07/25 05:33:27;;;;;;;8.05;3.67;;;21.10;58.10;;;;;;4108628;28;20030;-83
2022/07/25 05:35:28;;;;;;;7.55;3.65;;;21.20;57.90;;;;;;4117861;28;20524;-82
2022/07/25 05:37:29;;;;;;;4.82;3.50;;;21.20;57.60;;;;;;4103051;28;20049;-83
2022/07/25 05:39:30;;;;;;;11.23;3.70;;;21.30;57.30;;;;;;4104694;28;20114;-82
2022/07/25 05:41:31;;;;;;;4.70;3.55;;;21.30;57.10;;;;;;4109003;28;20053;-83
2022/07/25 05:43:31;;;;;;;5.35;3.90;;;21.40;57.10;;;;;;4102755;28;20767;-83
2022/07/25 05:45:32;;;;;;;8.57;3.80;;;21.40;57.00;;;;;;4105434;28;20034;-82
2022/07/25 05:47:33;;;;;;;5.43;4.20;;;21.50;56.90;;;;;;4122423;28;20034;-81
2022/07/25 05:49:34;;;;;;;10.80;3.60;;;21.50;56.80;;;;;;4123014;28;20027;-83
2022/07/25 05:51:35;;;;;;;5.43;4.05;;;21.60;56.60;;;;;;4122500;28;20065;-82
2022/07/25 05:53:36;;;;;;;6.03;3.58;;;21.60;56.60;;;;;;4123291;28;20030;-82
2022/07/25 05:55:37;;;;;;;11.68;3.50;;;21.70;56.50;;;;;;4126337;28;20502;-84
2022/07/25 05:57:37;;;;;;;4.72;3.47;;;21.80;56.30;;;;;;4119612;28;20044;-83
2022/07/25 05:59:38;;;;;;;4.50;3.22;;;21.80;56.20;;;;;;4116533;28;20058;-84
2022/07/25 06:01:39;;;;;;;4.43;3.20;;;21.80;55.80;;;;;;4124474;28;20508;-84
2022/07/25 06:03:40;;;;;;;8.98;3.70;;;21.90;55.70;;;;;;4122295;28;20045;-85
2022/07/25 06:05:41;;;;;;;5.35;3.60;;;21.90;55.50;;;;;;4091379;28;20035;-84
2022/07/25 06:07:42;;;;;;;6.20;3.13;;;21.90;55.20;;;;;;4121549;28;20432;-84
2022/07/25 06:09:42;;;;;;;8.25;3.22;;;22.00;55.10;;;;;;4120893;28;20726;-83
2022/07/25 06:11:43;;;;;;;5.32;3.45;;;22.00;55.00;;;;;;4123164;28;20043;-84
2022/07/25 06:13:44;;;;;;;8.40;3.67;;;22.10;55.00;;;;;;4112737;28;20034;-84
2022/07/25 06:15:44;;;;;;;5.15;3.70;;;22.10;55.00;;;;;;4126390;28;20029;-83
2022/07/25 06:17:45;;;;;;;6.68;3.70;;;22.10;55.00;;;;;;4122957;28;20105;-84
2022/07/25 06:19:46;;;;;;;5.82;3.50;;;22.10;54.80;;;;;;4125486;28;20046;-83
2022/07/25 06:21:46;;;;;;;8.32;3.17;;;22.20;54.70;;;;;;4109933;28;20472;-84
2022/07/25 06:23:47;;;;;;;10.93;3.80;;;22.20;54.50;;;;;;4115391;28;20022;-83
2022/07/25 06:25:48;;;;;;;8.13;3.50;;;22.20;54.50;;;;;;4120823;28;20026;-82
2022/07/25 06:27:49;;;;;;;5.47;3.53;;;22.30;54.50;;;;;;4123224;28;20037;-82
2022/07/25 06:29:49;;;;;;;5.95;3.50;;;22.30;54.30;;;;;;4125163;28;20030;-83
2022/07/25 06:31:50;;;;;;;7.05;3.75;;;22.30;54.20;;;;;;4121015;28;20034;-82
2022/07/25 06:33:51;;;;;;;5.40;3.53;;;22.40;54.10;;;;;;4121713;28;20038;-83
2022/07/25 06:35:52;;;;;;;5.78;3.25;;;22.40;53.90;;;;;;4117872;28;20048;-83
2022/07/25 06:37:52;;;;;;;7.07;3.55;;;22.40;53.80;;;;;;4122940;28;20402;-82
2022/07/25 06:39:53;;;;;;;4.93;3.10;;;22.50;53.80;;;;;;4112122;28;20042;-83
2022/07/25 06:41:54;;;;;;;5.72;3.20;;;22.50;53.80;;;;;;4113786;28;20031;-83
2022/07/25 06:43:55;;;;;;;4.93;3.42;;;22.60;53.70;;;;;;4119733;28;20042;-81
2022/07/25 06:45:56;;;;;;;6.25;3.80;;;22.60;53.60;;;;;;4098547;28;20039;-81
2022/07/25 06:47:56;;;;;;;7.65;3.35;;;22.60;53.50;;;;;;4118503;28;20062;-82
2022/07/25 06:49:57;;;;;;;4.22;3.20;;;22.70;53.60;;;;;;4119569;28;20055;-82
2022/07/25 06:51:58;;;;;;;4.93;3.38;;;22.70;53.50;;;;;;4103655;28;20026;-82
2022/07/25 06:53:59;;;;;;;6.47;3.15;;;22.70;53.40;;;;;;4119551;28;20038;-82
2022/07/25 06:56:00;;;;;;;10.18;3.55;;;22.80;53.30;;;;;;4117638;28;20726;-82
2022/07/25 06:58:01;;;;;;;5.40;3.58;;;22.80;53.10;;;;;;4120482;28;20049;-82
2022/07/25 07:00:05;;;;;;;12.48;3.45;;;22.80;53.00;;;;;;4120366;28;20110;-82
2022/07/25 07:02:07;;;;;;;4.45;3.00;;;22.80;53.00;;;;;;4111102;28;20067;-81
2022/07/25 07:04:07;;;;;;;5.20;3.38;;;22.80;52.70;;;;;;4115434;28;20420;-83
2022/07/25 07:06:08;;;;;;;4.50;3.20;;;22.90;52.90;;;;;;4117375;28;20039;-83
2022/07/25 07:08:09;;;;;;;7.35;3.83;;;22.90;52.70;;;;;;4117226;28;20630;-83
2022/07/25 07:10:09;;;;;;;9.57;3.17;;;22.90;52.60;;;;;;4121879;28;20100;-83
2022/07/25 07:12:10;;;;;;;8.98;3.88;;;22.90;52.60;;;;;;4116818;28;20763;-83
2022/07/25 07:14:12;;;;;;;7.63;3.17;;;22.90;52.50;;;;;;4105507;28;22789;-82
2022/07/25 07:16:12;;;;;;;5.80;3.72;;;22.90;52.50;;;;;;4104516;28;20535;-83
2022/07/25 07:18:13;;;;;;;6.65;3.25;;;22.90;52.40;;;;;;4116807;28;20034;-82
2022/07/25 07:20:14;;;;;;;16.02;3.47;;;23.00;52.50;;;;;;4118135;28;20089;-83
2022/07/25 07:22:15;;;;;;;7.30;3.28;;;23.00;52.40;;;;;;4125357;28;20073;-83
2022/07/25 07:24:15;;;;;;;5.45;3.50;;;23.00;52.50;;;;;;4101965;28;20035;-83
2022/07/25 07:26:16;;;;;;;4.50;3.40;;;23.00;52.50;;;;;;4121315;28;20026;-83
2022/07/25 07:28:17;;;;;;;8.20;3.15;;;23.10;52.50;;;;;;4122860;28;20117;-83
2022/07/25 07:30:18;;;;;;;6.82;3.20;;;23.10;52.50;;;;;;4104868;28;21249;-83
2022/07/25 07:32:19;;;;;;;9.13;3.85;;;23.10;52.50;;;;;;4105629;28;20019;-83
2022/07/25 07:34:20;;;;;;;6.22;3.63;;;23.10;52.30;;;;;;4121415;28;20798;-83
2022/07/25 07:36:21;;;;;;;5.47;3.70;;;23.20;52.40;;;;;;4124438;28;20041;-83
2022/07/25 07:38:23;;;;;;;5.40;3.35;;;23.20;52.40;;;;;;4119663;28;20030;-82
2022/07/25 07:40:25;;;;;;;9.25;3.50;;;23.30;53.00;;;;;;4120590;28;20030;-82
2022/07/25 07:42:26;;;;;;;14.35;4.70;;;23.30;52.10;;;;;;4120675;28;20622;-83
2022/07/25 07:44:27;;;;;;;7.15;2.90;;;23.30;51.90;;;;;;4102643;28;20049;-82
2022/07/25 07:46:27;;;;;;;10.07;3.50;;;23.40;51.80;;;;;;4115377;28;20038;-82
2022/07/25 07:48:29;;;;;;;9.75;3.40;;;23.40;51.60;;;;;;4116788;28;20034;-82
2022/07/25 07:50:30;;;;;;;5.78;3.72;;;23.40;51.50;;;;;;4116570;28;20034;-82
2022/07/25 07:52:31;;;;;;;6.80;3.20;;;23.50;51.20;;;;;;4118252;28;20057;-82
2022/07/25 07:56:51;;;;;;;9.02;3.35;;;23.50;51.90;;;;;;4099946;28;20027;-81
2022/07/25 07:58:51;;;;;;;8.10;3.08;;;23.50;51.30;;;;;;4116658;28;20022;-83
2022/07/25 08:00:53;;;;;;;4.97;2.70;;;23.50;51.40;;;;;;4117499;28;20060;-82
2022/07/25 08:02:54;;;;;;;7.65;3.63;;;23.60;51.20;;;;;;4116925;28;20555;-81
2022/07/25 08:04:55;;;;;;;7.72;3.20;;;23.60;50.80;;;;;;4128577;28;20049;-81
2022/07/25 08:06:56;;;;;;;4.03;3.25;;;23.60;50.90;;;;;;4125685;28;20041;-82
2022/07/25 08:08:56;;;;;;;7.68;3.38;;;23.70;50.70;;;;;;4118602;28;20076;-82
2022/07/25 08:10:57;;;;;;;7.70;3.40;;;23.80;50.70;;;;;;4120613;28;20031;-82
2022/07/25 08:12:58;;;;;;;7.25;3.03;;;23.80;50.40;;;;;;4125548;28;20037;-82
2022/07/25 08:14:59;;;;;;;4.50;3.22;;;23.80;50.10;;;;;;4124057;28;20068;-83
2022/07/25 08:17:00;;;;;;;10.02;3.33;;;23.90;50.20;;;;;;4108402;28;20034;-83
2022/07/25 08:19:00;;;;;;;6.70;2.97;;;24.00;50.30;;;;;;4103327;28;20043;-83
2022/07/25 08:21:04;;;;;;;4.32;3.30;;;24.00;50.00;;;;;;4097987;28;20035;-82
2022/07/25 08:23:06;;;;;;;5.70;3.50;;;24.10;50.00;;;;;;4120366;28;20027;-82
2022/07/25 08:25:08;;;;;;;5.32;3.35;;;24.10;49.80;;;;;;4120940;28;20062;-83
2022/07/25 08:27:10;;;;;;;8.60;3.63;;;24.20;49.70;;;;;;4105676;28;20054;-82
2022/07/25 08:29:26;;;;;;;4.68;3.20;;;24.20;49.60;;;;;;4103756;28;20030;-83
2022/07/25 08:31:47;;;;;;;12.13;3.67;;;24.30;49.40;;;;;;4121712;28;20034;-83
2022/07/25 08:33:48;;;;;;;4.45;2.90;;;24.30;49.10;;;;;;4106386;28;20030;-82
2022/07/25 08:35:51;;;;;;;5.03;3.08;;;24.40;49.30;;;;;;4118308;28;20038;-82
2022/07/25 08:37:53;;;;;;;7.30;3.70;;;24.40;49.20;;;;;;4119807;28;20275;-82
2022/07/25 08:39:53;;;;;;;5.28;3.20;;;24.50;49.10;;;;;;4119801;28;20451;-83
2022/07/25 08:41:55;;;;;;;7.30;3.17;;;24.60;49.30;;;;;;4104220;28;20121;-83
2022/07/25 08:44:17;;;;;;;5.45;3.33;;;24.70;49.60;;;;;;4104581;28;20043;-82
2022/07/25 08:46:18;;;;;;;5.95;3.80;;;24.80;49.00;;;;;;4119648;28;20291;-83
2022/07/25 08:48:39;;;;;;;7.32;3.40;;;24.90;48.00;;;;;;4111801;28;20119;-84
2022/07/25 08:51:01;;;;;;;7.95;3.75;;;25.00;48.30;;;;;;4122060;28;20496;-83
2022/07/25 08:53:22;;;;;;;6.40;3.30;;;25.10;48.60;;;;;;4119935;28;20088;-81
2022/07/25 08:55:44;;;;;;;9.55;3.67;;;25.20;48.40;;;;;;4118047;28;20544;-83
2022/07/25 08:57:47;;;;;;;7.90;3.38;;;25.30;48.20;;;;;;4122454;28;20041;-82
2022/07/25 09:00:08;;;;;;;8.57;3.92;;;25.40;48.40;;;;;;4118522;28;20058;-83
2022/07/25 09:02:29;;;;;;;7.70;3.63;;;25.50;48.20;;;;;;4106896;28;20606;-83
2022/07/25 09:04:50;;;;;;;11.05;4.18;;;25.60;47.30;;;;;;4116877;28;20494;-83
2022/07/25 09:07:10;;;;;;;6.85;3.70;;;25.70;47.00;;;;;;4118190;28;20042;-83
2022/07/25 09:09:37;;;;;;;5.28;3.55;;;25.80;46.60;;;;;;4125782;28;20496;-83
2022/07/25 09:11:58;;;;;;;5.07;3.78;;;25.90;46.50;;;;;;4116651;28;20069;-83
2022/07/25 09:14:18;;;;;;;11.80;3.65;;;26.00;45.90;;;;;;4125349;28;20034;-83
2022/07/25 09:16:42;;;;;;;6.25;4.13;;;26.10;46.20;;;;;;4105659;28;20034;-82
2022/07/25 09:19:16;;;;;;;7.15;3.60;;;26.10;46.20;;;;;;4119820;28;20037;-83
2022/07/25 09:21:38;;;;;;;;;;;26.20;45.90;;;;;;4114915;28;20165;-83
2022/07/25 09:24:16;;;;;;;10.93;3.47;;;26.20;46.10;;;;;;4106704;28;19937;-83
2022/07/25 09:26:47;;;;;;;8.30;3.58;;;26.30;46.30;;;;;;4124105;28;20115;-83
2022/07/25 09:29:18;;;;;;;8.13;3.75;;;26.30;46.30;;;;;;4101815;28;20031;-83
2022/07/25 09:31:41;;;;;;;5.72;3.88;;;26.40;46.00;;;;;;4107062;28;20039;-82
2022/07/25 09:34:07;;;;;;;8.27;4.25;;;26.40;46.00;;;;;;4126547;28;20038;-82
2022/07/25 09:36:27;;;;;;;6.47;3.28;;;26.50;45.80;;;;;;4122127;28;20030;-83
2022/07/25 09:38:56;;;;;;;7.95;3.70;;;26.60;46.30;;;;;;4121560;28;20027;-82
2022/07/25 09:41:17;;;;;;;8.88;3.60;;;26.60;46.00;;;;;;4111032;28;20074;-83
2022/07/25 09:43:39;;;;;;;5.10;4.07;;;26.70;46.20;;;;;;4122160;28;20030;-83
2022/07/25 09:46:00;;;;;;;8.65;3.60;;;26.80;46.00;;;;;;4125997;28;20026;-83
2022/07/25 09:48:21;;;;;;;5.38;3.60;;;26.80;45.80;;;;;;4108915;28;20031;-84
2022/07/25 09:50:42;;;;;;;10.32;3.92;;;26.90;45.70;;;;;;4125083;28;20138;-84
2022/07/25 09:53:04;;;;;;;8.07;3.70;;;27.00;45.80;;;;;;4122260;28;20058;-83
2022/07/25 09:55:25;;;;;;;7.10;4.28;;;27.10;45.40;;;;;;4123557;28;20038;-82
2022/07/25 09:57:51;;;;;;;8.20;4.30;;;27.20;45.50;;;;;;4128962;28;20042;-82
2022/07/25 10:00:14;;;;;;;7.10;3.97;;;27.30;45.30;;;;;;4124674;28;20038;-84
2022/07/25 10:03:14;;;;;;;9.45;4.13;;;27.40;44.90;;;;;;4123609;28;20045;-82
2022/07/25 10:05:58;;;;;;;8.57;4.28;;;27.50;45.10;;;;;;4104873;28;20417;-82
2022/07/25 10:08:20;;;;;;;6.90;4.22;;;27.60;44.80;;;;;;4112538;28;20098;-82
2022/07/25 10:10:41;;;;;;;6.57;4.50;;;27.70;45.00;;;;;;4125792;28;20458;-82
2022/07/25 10:13:10;;;;;;;12.15;4.95;;;27.80;44.40;;;;;;4127367;28;20042;-83
2022/07/25 10:15:41;;;;;;;7.68;4.13;;;27.90;44.50;;;;;;4113796;28;20038;-83
2022/07/25 10:18:02;;;;;;;7.35;4.45;;;28.00;44.80;;;;;;4128578;28;20030;-83
2022/07/25 10:20:27;;;;;;;7.50;4.20;;;28.10;44.30;;;;;;4125145;28;20513;-83
2022/07/25 10:22:43;;;;;;;10.45;4.90;;;28.20;43.80;;;;;;4128119;28;20026;-82
2022/07/25 10:24:46;;;;;;;5.95;4.03;;;28.30;43.50;;;;;;4130056;28;20147;-83
2022/07/25 10:26:53;;;;;;;6.53;4.00;;;28.40;44.20;;;;;;4112437;28;20955;-82
2022/07/25 10:28:55;;;;;;;6.40;4.38;;;28.50;43.30;;;;;;4128084;28;20031;-82
2022/07/25 10:30:58;;;;;;;8.50;4.03;;;28.60;43.80;;;;;;4126390;28;21406;-82
2022/07/25 10:33:03;;;;;;;6.03;4.05;;;28.70;43.40;;;;;;4111369;28;20027;-82
2022/07/25 10:35:15;;;;;;;8.13;4.80;;;28.80;43.30;;;;;;4113276;28;20026;-82
2022/07/25 10:37:17;;;;;;;6.38;4.13;;;28.90;43.10;;;;;;4124858;28;20205;-82
2022/07/25 10:39:20;;;;;;;6.57;4.60;;;29.00;43.40;;;;;;4130592;28;20037;-82
2022/07/25 10:41:25;;;;;;;7.38;3.80;;;29.10;43.10;;;;;;4128995;28;20157;-82
2022/07/25 10:43:26;;;;;;;7.03;3.92;;;29.20;44.00;;;;;;4127598;28;20416;-83
2022/07/25 10:45:52;;;;;;;10.30;5.03;;;29.30;42.60;;;;;;4129807;28;20033;-82
2022/07/25 10:47:54;;;;;;;5.63;4.20;;;29.40;42.60;;;;;;4113377;28;20122;-83
2022/07/25 10:50:02;;;;;;;6.20;3.97;;;29.40;41.80;;;;;;4107791;28;20033;-82
2022/07/25 10:52:03;;;;;;;8.90;4.22;;;29.50;42.00;;;;;;4128936;28;20026;-81
2022/07/25 10:54:15;;;;;;;8.43;4.35;;;29.60;42.20;;;;;;4126066;28;20034;-83
2022/07/25 10:56:25;;;;;;;11.95;4.95;;;29.60;41.50;;;;;;4129867;28;20038;-81
2022/07/25 10:58:26;;;;;;;5.32;4.13;;;29.70;41.30;;;;;;4129643;28;20035;-81
2022/07/25 11:00:27;;;;;;;6.80;4.75;;;29.70;40.90;;;;;;4112472;28;20463;-83
2022/07/25 11:02:28;;;;;;;6.82;4.30;;;29.80;40.70;;;;;;4128344;28;20092;-82
2022/07/25 11:04:29;;;;;;;8.23;4.68;;;29.80;40.80;;;;;;4129777;28;20030;-83
2022/07/25 11:06:33;;;;;;;17.65;5.38;;;29.80;40.30;;;;;;4115191;28;20106;-83
2022/07/25 11:08:34;;;;;;;9.05;4.60;;;29.90;40.40;;;;;;4128892;28;20030;-83
2022/07/25 11:10:35;;;;;;;6.65;4.15;;;29.90;40.40;;;;;;4126916;28;20033;-83
2022/07/25 11:12:36;;;;;;;10.98;4.28;;;30.00;40.00;;;;;;4129279;28;20046;-83
2022/07/25 11:14:41;;;;;;;8.60;4.05;;;30.00;40.00;;;;;;4113686;28;20348;-83
2022/07/25 11:16:43;;;;;;;7.60;3.80;;;30.00;39.70;;;;;;4127524;28;20506;-83
2022/07/25 11:18:44;;;;;;;9.27;4.50;;;30.00;39.80;;;;;;4127007;28;20601;-83
2022/07/25 11:25:59;;;;;;;8.93;4.78;;;30.00;39.80;;;;;;4152588;28;20038;-83
2022/07/25 11:32:07;;;;;;;7.68;4.38;;;30.00;40.80;;;;;;4090106;28;20071;-82
2022/07/25 11:40:52;;;;;;;12.60;5.90;;;29.90;40.90;;;;;;4062082;29;20348;-82
2022/07/25 11:43:23;;;;;;;9.48;5.28;;;29.90;40.60;;;;;;4145875;28;20097;-81
2022/07/25 11:45:40;;;;;;;9.63;5.35;;;29.90;40.40;;;;;;4147148;28;20029;-82
2022/07/25 11:48:08;;;;;;;9.82;5.70;;;29.80;40.50;;;;;;4143700;28;20038;-83
2022/07/25 11:50:31;;;;;;;8.38;5.95;;;29.80;40.60;;;;;;4125184;28;20142;-83
2022/07/25 11:52:35;;;;;;;6.67;4.57;;;29.70;40.40;;;;;;4136331;28;20109;-82
2022/07/25 11:54:58;;;;;;;10.38;5.65;;;29.60;40.60;;;;;;4126105;28;20030;-82
2022/07/25 11:57:38;;;;;;;;;;;;;;;;;;;;;
2022/07/25 12:00:07;;;;;;;;;;;29.40;41.50;;;;;;4110112;28;20030;-83
2022/07/25 12:02:29;;;;;;;12.55;6.10;;;29.30;41.50;;;;;;4143974;28;19959;-83
2022/07/25 12:04:39;;;;;;;23.10;7.10;;;29.20;41.80;;;;;;4142204;28;20086;-82
2022/07/25 12:12:13;;;;;;;9.93;6.20;;;28.90;41.90;;;;;;4151990;28;20031;-82
2022/07/25 12:14:54;;;;;;;10.77;6.95;;;28.70;42.40;;;;;;4142836;28;20072;-82
2022/07/25 12:17:00;;;;;;;14.00;6.10;;;28.60;42.40;;;;;;4142363;28;20113;-83
2022/07/25 12:19:18;;;;;;;8.18;5.80;;;28.50;42.60;;;;;;4143333;28;20105;-82
2022/07/25 12:22:00;;;;;;;9.18;6.28;;;28.40;43.00;;;;;;4138841;28;20030;-82
2022/07/25 12:24:07;;;;;;;9.07;6.22;;;28.30;43.30;;;;;;4107030;28;20421;-83
2022/07/25 12:28:34;;;;;;;10.77;6.18;;;28.20;43.60;;;;;;4139409;28;20038;-83
2022/07/25 12:31:07;;;;;;;9.13;6.07;;;28.10;43.90;;;;;;4137144;28;20041;-81
2022/07/25 12:34:29;;;;;;;10.70;6.10;;;28.00;44.00;;;;;;4140953;28;20022;-83
2022/07/25 12:36:21;;;;;;;;;;;;;;;;;;;;;
2022/07/25 12:38:54;;;;;;;9.45;5.47;;;28.00;44.50;;;;;;4097302;28;20080;-81
2022/07/25 12:41:14;;;;;;;9.65;5.75;;;28.00;44.80;;;;;;4099359;28;20137;-82
2022/07/25 12:43:38;;;;;;;11.65;6.90;;;28.00;45.00;;;;;;4136214;28;20044;-81
2022/07/25 12:45:42;;;;;;;10.90;7.47;;;28.00;45.30;;;;;;4134742;28;20030;-82
2022/07/25 12:47:55;;;;;;;12.40;7.47;;;28.00;45.10;;;;;;4143654;28;20018;-83
2022/07/25 12:50:12;;;;;;;15.23;6.53;;;28.00;45.00;;;;;;4142820;28;20109;-81
2022/07/25 12:52:43;;;;;;;10.88;6.68;;;28.00;45.10;;;;;;4144395;28;20105;-81
2022/07/25 12:55:29;;;;;;;12.15;7.57;;;28.00;45.00;;;;;;4114868;28;20046;-82
2022/07/25 12:57:36;;;;;;;13.55;7.20;;;28.00;45.10;;;;;;4124699;28;20053;-83
2022/07/25 13:00:28;;;;;;;;;;;;;;;;;;;;;
2022/07/25 13:02:43;;;;;;;17.30;7.00;;;28.00;44.80;;;;;;4110431;28;20046;-83
2022/07/25 13:05:33;;;;;;;10.73;7.85;;;28.00;44.80;;;;;;4108013;28;20073;-82
2022/07/25 13:08:11;;;;;;;11.35;7.35;;;28.00;44.70;;;;;;4113156;28;20047;-83
2022/07/25 13:13:30;;;;;;;;;;;;;;;;;;;;;
2022/07/25 13:15:54;;;;;;;;;;;;;;;;;;;;;
2022/07/25 13:18:38;;;;;;;21.15;10.07;;;27.50;45.10;;;;;;4096520;28;20063;-82
2022/07/25 13:20:41;;;;;;;15.40;9.65;;;27.30;45.40;;;;;;4134090;28;20041;-82
2022/07/25 13:22:45;;;;;;;14.70;9.88;;;27.20;45.40;;;;;;4131179;28;20066;-82
2022/07/25 13:24:45;;;;;;;17.65;10.57;;;27.10;45.70;;;;;;4125571;28;20062;-83
2022/07/25 13:26:46;;;;;;;14.15;9.88;;;27.00;45.80;;;;;;4141500;28;20022;-81
2022/07/25 13:28:47;;;;;;;14.98;10.65;;;26.80;46.00;;;;;;4142322;28;20028;-83
2022/07/25 13:30:48;;;;;;;15.70;10.15;;;26.70;46.30;;;;;;4134714;28;20793;-82
2022/07/25 13:32:49;;;;;;;13.98;9.88;;;26.60;46.80;;;;;;4138264;28;20621;-82
2022/07/25 13:34:49;;;;;;;17.33;9.80;;;26.50;47.60;;;;;;4129163;28;20022;-81
2022/07/25 13:36:50;;;;;;;20.27;10.55;;;26.40;48.40;;;;;;4144351;28;20030;-82
2022/07/25 13:38:51;;;;;;;19.52;11.25;;;26.30;48.70;;;;;;4126754;28;20864;-82
2022/07/25 13:40:52;;;;;;;16.83;10.45;;;26.20;49.30;;;;;;4126095;28;20796;-82
2022/07/25 13:42:52;;;;;;;16.17;10.35;;;26.10;50.20;;;;;;4124046;28;20034;-82
2022/07/25 13:44:53;;;;;;;18.45;10.45;;;26.10;50.40;;;;;;4121727;28;20026;-82
2022/07/25 13:46:54;;;;;;;15.55;10.05;;;26.00;50.60;;;;;;4141785;28;20790;-83
2022/07/25 13:48:55;;;;;;;13.35;8.68;;;25.90;50.80;;;;;;4122751;28;20031;-82
2022/07/25 13:50:59;;;;;;;17.58;8.00;;;25.80;50.60;;;;;;4139948;28;20026;-83
2022/07/25 13:53:00;;;;;;;14.50;7.82;;;25.60;50.50;;;;;;4123168;28;20117;-83
2022/07/25 13:55:01;;;;;;;10.57;6.40;;;25.50;50.40;;;;;;4126803;28;20030;-83
2022/07/25 13:57:02;;;;;;;9.93;6.32;;;25.40;50.00;;;;;;4144040;28;20451;-82
2022/07/25 13:59:03;;;;;;;8.02;5.43;;;25.30;49.80;;;;;;4139545;28;20026;-84
2022/07/25 14:01:04;;;;;;;10.68;5.47;;;25.20;50.00;;;;;;4137565;28;20082;-84
2022/07/25 14:03:05;;;;;;;7.82;3.00;;;25.10;49.90;;;;;;4145577;28;20045;-84
2022/07/25 14:05:06;;;;;;;3.75;2.78;;;24.90;48.20;;;;;;4128405;28;20029;-82
2022/07/25 14:07:07;;;;;;;9.25;3.08;;;24.80;47.70;;;;;;4135512;28;20048;-80
2022/07/25 14:09:07;;;;;;;4.72;3.08;;;24.70;47.90;;;;;;4143078;28;20407;-82
2022/07/25 14:11:08;;;;;;;5.25;3.50;;;24.60;48.30;;;;;;4135972;28;20030;-83
2022/07/25 14:13:09;;;;;;;5.05;3.53;;;24.40;48.60;;;;;;4143394;28;20018;-81
2022/07/25 14:15:10;;;;;;;5.72;3.72;;;24.30;49.00;;;;;;4144371;28;20590;-81
2022/07/25 14:17:11;;;;;;;5.50;3.85;;;24.20;49.90;;;;;;4138860;28;20040;-82
2022/07/25 14:19:11;;;;;;;6.85;4.32;;;24.00;50.80;;;;;;4143166;28;20030;-81
2022/07/25 14:21:12;;;;;;;5.82;4.18;;;23.90;50.80;;;;;;4144980;28;20036;-83
2022/07/25 14:23:13;;;;;;;9.18;4.32;;;23.80;51.50;;;;;;4127962;28;20121;-82
2022/07/25 14:25:14;;;;;;;8.02;3.95;;;23.80;51.90;;;;;;4142936;28;20026;-82
2022/07/25 14:27:15;;;;;;;7.90;4.78;;;23.70;52.50;;;;;;4134924;28;20033;-82
2022/07/25 14:29:15;;;;;;;7.95;4.65;;;23.70;52.60;;;;;;4130282;28;20232;-83
2022/07/25 14:31:16;;;;;;;10.35;5.00;;;23.70;52.90;;;;;;4137538;28;20058;-82
2022/07/25 14:33:17;;;;;;;8.93;4.78;;;23.70;52.80;;;;;;4140890;28;20026;-82
2022/07/25 14:35:19;;;;;;;5.63;4.05;;;23.70;52.80;;;;;;4141921;28;20042;-82
2022/07/25 14:37:22;;;;;;;7.00;4.83;;;23.70;53.00;;;;;;4136039;28;20068;-83
2022/07/25 14:39:23;;;;;;;7.45;4.72;;;23.70;52.60;;;;;;4144115;28;20091;-82
2022/07/25 14:41:23;;;;;;;7.05;3.70;;;23.70;52.10;;;;;;4139495;28;20030;-84
2022/07/25 14:43:24;;;;;;;5.63;3.08;;;23.70;51.60;;;;;;4122660;28;20056;-83
2022/07/25 14:45:25;;;;;;;13.65;3.50;;;23.70;50.70;;;;;;4122028;28;20034;-81
2022/07/25 14:47:25;;;;;;;8.15;4.00;;;23.70;50.50;;;;;;4139198;28;20052;-83
2022/07/25 14:49:27;;;;;;;8.82;3.70;;;23.70;50.50;;;;;;4124401;28;20582;-82
2022/07/25 14:51:29;;;;;;;4.93;3.65;;;23.70;50.60;;;;;;4146400;28;20045;-84
2022/07/25 14:53:33;;;;;;;6.82;3.40;;;23.70;50.60;;;;;;4137760;28;20135;-83
2022/07/25 14:55:36;;;;;;;5.60;3.78;;;23.70;50.80;;;;;;4139982;28;20038;-81